KMML/MML METAR and TAF weather

Enter ICAO airport designator
Station Type Date Time Source
KMML METAR 2019/06/16 12:34 UTC NOAA

KMML 161234Z AUTO 00000KT 2 1/2SM BR OVC003 17/17 A2984 RMK AO2


Station Type Date Time Source
KMML Decoded METAR 2019/06/16 12:34 UTC NOAA

Marshall, Southwest Minnesota Regional Airport - Marshall/Ryan Field, MN, United States (KMML) 44-27N 095-49W
Jun 16, 2019 - 08:34 AM EDT / 2019.06.16 1234 UTC
Wind: Calm:0
Visibility: 2 1/2 mile(s):0
Sky conditions: overcast
Weather: mist
Temperature: 62 F (17 C)
Dew Point: 62 F (17 C)
Relative Humidity: 100%
Pressure (altimeter): 29.84 in. Hg (1010 hPa)
ob: KMML 161234Z AUTO 00000KT 2 1/2SM BR OVC003 17/17 A2984 RMK AO2
cycle: 12

Station Type Date Time Source
KMML TAF UTC NOAA

Error!

Example: see airport list